Startpagina
METAR-TAF:

METAR-TAF

Vliegvelden :

Indore, India

breedte: 22-43N, lengte: 075-48E, hoogte: 561 m

Actueel weer

Dit bericht is 1 uur en het 28 minuten geleden gemaakt, om 12:00 UTC
Wind 2 kt uit het noordoosten
Temperatuur 32°C
Vochtigheid 41%
Druk 1008 hPa
Zicht: 5000 m
Weinig wolken op 2500 ft
Verspreide wolken op 10000 ft
Heiigheid

METAR: VAID 191200Z 05002KT 5000 HZ FEW025 SCT100 32/17 Q1008 NOSIG

Tijdstip: 18:58 (13:28 UTC)


TAF: ontbreekt

Waarnemingen en weersverwachtingen van meer dan 4000 vliegvelden (METAR en TAF).

De beschikbare stations zijn de gele en rode punten op de kaart.

Ga met uw muis naar het station om de naam te zien.

Klik dan om waarnemingen en weersverwachtingen te zien.

kaart wijzigen: klik op de groene knoppen met een zwart kruis om in te zoomen, op de groene knop met een streepje om uit te zoomen of op de groene pijlen voor aangrenzende kaarten.


METAR-TAF: